Time;durP1;ratioP1;P1;durP2;ratioP2;P2;SDS_P1;SDS_P2;PMS_P1;PMS_P2;Temp;Humidity;BMP_temperature;BMP_pressure;BME280_temperature;BME280_humidity;BME280_pressure;Samples;Min_cycle;Max_cycle;Signal;HPM_P1;HPM_P2
2023/03/23 00:01:49;;;;;;;9.00;5.47;;;;;;;;;;5013067;28;20205;-67
2023/03/23 00:04:15;;;;;;;11.23;6.00;;;;;;;;;;5021425;28;20503;-68
2023/03/23 00:06:40;;;;;;;10.40;5.57;;;;;;;;;;5017968;28;20281;-67
2023/03/23 00:09:06;;;;;;;9.65;4.93;;;;;;;;;;5016807;28;20235;-67
2023/03/23 00:11:32;;;;;;;8.82;5.38;;;;;;;;;;5022101;28;20265;-69
2023/03/23 00:14:00;;;;;;;9.82;4.95;;;;;;;;;;5017270;28;20190;-67
2023/03/23 00:16:31;;;;;;;9.48;5.03;;;;;;;;;;5021618;28;20299;-67
2023/03/23 00:19:02;;;;;;;9.45;5.38;;;;;;;;;;5023112;28;20202;-68
2023/03/23 00:21:34;;;;;;;9.52;5.40;;;;;;;;;;5018019;28;20682;-67
2023/03/23 00:24:10;;;;;;;7.90;4.82;;;;;;;;;;5023101;28;20273;-67
2023/03/23 00:26:39;;;;;;;10.10;4.65;;;;;;;;;;5025778;28;20203;-67
2023/03/23 00:29:07;;;;;;;10.73;5.22;;;;;;;;;;5026676;28;20229;-67
2023/03/23 00:31:34;;;;;;;8.02;4.82;;;;;;;;;;5026995;28;20217;-68
2023/03/23 00:34:01;;;;;;;9.02;4.78;;;;;;;;;;5028773;28;20196;-67
2023/03/23 00:36:28;;;;;;;12.80;4.80;;;;;;;;;;5022382;28;20233;-67
2023/03/23 00:38:57;;;;;;;11.45;4.65;;;;;;;;;;5020902;28;20274;-67
2023/03/23 00:41:23;;;;;;;11.10;5.03;;;;;;;;;;5022137;28;20186;-67
2023/03/23 00:43:51;;;;;;;9.50;4.40;;;;;;;;;;5029024;28;20208;-67
2023/03/23 00:46:16;;;;;;;9.30;4.60;;;;;;;;;;5029409;28;20457;-67
2023/03/23 00:48:44;;;;;;;8.68;4.53;;;;;;;;;;5028524;28;20265;-67
2023/03/23 00:51:11;;;;;;;13.23;4.30;;;;;;;;;;5018681;28;20717;-67
2023/03/23 00:53:37;;;;;;;8.05;4.50;;;;;;;;;;5026119;28;20248;-67
2023/03/23 00:56:02;;;;;;;11.13;4.18;;;;;;;;;;5023668;28;20194;-67
2023/03/23 00:58:27;;;;;;;11.95;4.40;;;;;;;;;;5027686;28;20204;-66
2023/03/23 01:00:53;;;;;;;9.45;4.18;;;;;;;;;;5022071;28;20245;-68
2023/03/23 01:03:18;;;;;;;9.10;4.38;;;;;;;;;;5022690;28;20195;-69
2023/03/23 01:05:46;;;;;;;8.10;4.35;;;;;;;;;;5019883;28;20708;-67
2023/03/23 01:08:13;;;;;;;7.80;4.07;;;;;;;;;;5016911;28;20611;-67
2023/03/23 01:10:40;;;;;;;8.75;3.88;;;;;;;;;;5022692;28;20190;-66
2023/03/23 01:13:07;;;;;;;8.48;3.92;;;;;;;;;;5042819;28;20213;-68
2023/03/23 01:15:32;;;;;;;9.30;4.25;;;;;;;;;;5019210;28;20590;-67
2023/03/23 01:17:58;;;;;;;6.82;4.07;;;;;;;;;;5013312;28;20199;-67
2023/03/23 01:20:26;;;;;;;6.20;4.22;;;;;;;;;;5021464;28;20605;-67
2023/03/23 01:22:52;;;;;;;5.10;3.63;;;;;;;;;;5026131;28;20656;-68
2023/03/23 01:25:18;;;;;;;7.03;3.97;;;;;;;;;;5014443;28;20533;-67
2023/03/23 01:27:44;;;;;;;8.68;4.30;;;;;;;;;;5017823;28;20211;-67
2023/03/23 01:30:11;;;;;;;7.28;4.07;;;;;;;;;;5028140;28;20277;-67
2023/03/23 01:32:37;;;;;;;8.60;4.40;;;;;;;;;;5026390;28;20277;-67
2023/03/23 01:35:03;;;;;;;7.85;3.85;;;;;;;;;;5016803;28;20561;-67
2023/03/23 01:37:29;;;;;;;7.60;3.95;;;;;;;;;;5024233;28;20205;-67
2023/03/23 01:39:58;;;;;;;7.10;3.83;;;;;;;;;;5018231;28;20182;-66
2023/03/23 01:42:32;;;;;;;6.07;3.90;;;;;;;;;;5026086;28;20607;-66
2023/03/23 01:45:20;;;;;;;7.90;4.30;;;;;;;;;;5015074;28;20190;-68
2023/03/23 01:47:52;;;;;;;7.90;4.00;;;;;;;;;;5020670;28;20305;-66
2023/03/23 01:50:22;;;;;;;6.70;4.40;;;;;;;;;;5021236;28;20241;-66
2023/03/23 01:52:48;;;;;;;6.53;3.97;;;;;;;;;;5026604;28;20193;-68
2023/03/23 01:55:14;;;;;;;8.70;4.05;;;;;;;;;;5024466;28;20360;-66
2023/03/23 01:57:39;;;;;;;6.93;3.92;;;;;;;;;;5027446;28;20569;-66
2023/03/23 02:00:11;;;;;;;6.65;3.72;;;;;;;;;;5019284;28;20210;-66
2023/03/23 02:02:38;;;;;;;9.25;4.22;;;;;;;;;;5018748;28;20194;-67
2023/03/23 02:05:11;;;;;;;10.27;3.90;;;;;;;;;;5025603;28;20573;-67
2023/03/23 02:07:37;;;;;;;7.15;3.90;;;;;;;;;;5018988;28;20241;-66
2023/03/23 02:10:03;;;;;;;6.88;3.72;;;;;;;;;;5020738;28;20280;-67
2023/03/23 02:12:28;;;;;;;6.15;3.85;;;;;;;;;;5018086;28;20666;-66
2023/03/23 02:14:54;;;;;;;6.05;4.18;;;;;;;;;;5026753;28;20194;-66
2023/03/23 02:17:31;;;;;;;5.55;3.95;;;;;;;;;;5022568;28;20194;-67
2023/03/23 02:20:13;;;;;;;6.90;4.15;;;;;;;;;;5018048;28;20870;-66
2023/03/23 02:23:11;;;;;;;9.20;4.18;;;;;;;;;;5027117;28;20198;-67
2023/03/23 02:25:54;;;;;;;8.25;4.10;;;;;;;;;;5018823;28;20638;-68
2023/03/23 02:28:49;;;;;;;4.88;3.42;;;;;;;;;;5032327;28;20225;-66
2023/03/23 02:31:29;;;;;;;7.03;3.65;;;;;;;;;;5032281;28;20202;-65
2023/03/23 02:33:57;;;;;;;7.55;4.20;;;;;;;;;;5031909;28;20276;-66
2023/03/23 02:36:25;;;;;;;5.32;3.50;;;;;;;;;;5032800;28;20642;-65
2023/03/23 02:39:05;;;;;;;8.82;3.55;;;;;;;;;;5032597;28;20194;-65
2023/03/23 02:41:39;;;;;;;5.60;3.40;;;;;;;;;;5029991;28;20272;-66
2023/03/23 02:44:07;;;;;;;5.15;3.10;;;;;;;;;;5033232;28;20191;-65
2023/03/23 02:46:35;;;;;;;5.30;3.10;;;;;;;;;;5023100;28;20206;-67
2023/03/23 02:49:03;;;;;;;6.85;3.53;;;;;;;;;;5028737;28;20260;-65
2023/03/23 02:51:29;;;;;;;5.55;2.88;;;;;;;;;;5032471;28;20245;-66
2023/03/23 02:53:56;;;;;;;3.63;2.90;;;;;;;;;;5028780;28;20236;-67
2023/03/23 02:56:24;;;;;;;7.68;3.45;;;;;;;;;;5016347;28;20189;-66
2023/03/23 02:58:50;;;;;;;6.30;3.35;;;;;;;;;;5028229;28;20201;-65
2023/03/23 03:01:35;;;;;;;5.03;3.20;;;;;;;;;;5027810;28;20218;-66
2023/03/23 03:04:14;;;;;;;5.75;3.55;;;;;;;;;;5028253;28;20237;-66
2023/03/23 03:06:56;;;;;;;4.07;3.28;;;;;;;;;;5028902;28;20220;-66
2023/03/23 03:10:11;;;;;;;8.48;3.50;;;;;;;;;;5030062;28;20487;-66
2023/03/23 03:12:50;;;;;;;6.38;3.10;;;;;;;;;;5007001;28;20203;-66
2023/03/23 03:15:31;;;;;;;4.82;3.40;;;;;;;;;;5004576;28;20266;-66
2023/03/23 03:18:16;;;;;;;8.15;3.53;;;;;;;;;;5011969;28;20476;-66
2023/03/23 03:20:49;;;;;;;6.75;3.42;;;;;;;;;;5024267;28;20210;-66
2023/03/23 03:23:16;;;;;;;4.20;3.50;;;;;;;;;;5024362;28;20622;-67
2023/03/23 03:25:47;;;;;;;5.32;3.60;;;;;;;;;;5025337;28;20197;-66
2023/03/23 03:28:16;;;;;;;5.90;3.45;;;;;;;;;;5021376;28;20290;-66
2023/03/23 03:30:44;;;;;;;6.88;3.60;;;;;;;;;;5027579;28;20202;-66
2023/03/23 03:33:11;;;;;;;4.53;3.47;;;;;;;;;;5025735;28;20703;-66
2023/03/23 03:35:39;;;;;;;6.20;3.50;;;;;;;;;;5029383;28;20182;-66
2023/03/23 03:38:07;;;;;;;6.30;3.58;;;;;;;;;;5020117;28;20572;-67
2023/03/23 03:40:33;;;;;;;4.30;3.40;;;;;;;;;;5015741;28;20270;-66
2023/03/23 03:42:58;;;;;;;6.78;3.55;;;;;;;;;;5021694;28;20201;-66
2023/03/23 03:45:24;;;;;;;5.97;3.45;;;;;;;;;;5031690;28;20197;-65
2023/03/23 03:47:49;;;;;;;5.90;3.90;;;;;;;;;;5034752;28;20569;-68
2023/03/23 03:50:16;;;;;;;5.65;4.20;;;;;;;;;;5020905;28;20226;-66
2023/03/23 03:52:41;;;;;;;4.50;3.47;;;;;;;;;;5025994;28;20193;-65
2023/03/23 03:55:08;;;;;;;7.80;3.78;;;;;;;;;;5026422;28;20201;-66
2023/03/23 03:57:34;;;;;;;8.18;3.28;;;;;;;;;;5023490;28;20203;-65
2023/03/23 04:00:00;;;;;;;8.52;3.50;;;;;;;;;;5026837;28;20327;-65
2023/03/23 04:02:25;;;;;;;6.93;3.53;;;;;;;;;;5028882;28;20186;-65
2023/03/23 04:04:54;;;;;;;7.07;3.35;;;;;;;;;;5026975;28;20645;-66
2023/03/23 04:07:21;;;;;;;6.72;3.63;;;;;;;;;;5026316;28;20210;-66
2023/03/23 04:09:47;;;;;;;5.22;3.70;;;;;;;;;;5027477;28;20217;-65
2023/03/23 04:12:14;;;;;;;5.03;3.90;;;;;;;;;;5020736;28;20191;-65
2023/03/23 04:14:40;;;;;;;4.55;3.05;;;;;;;;;;5028787;28;20233;-65
2023/03/23 04:17:06;;;;;;;6.90;3.75;;;;;;;;;;5032455;28;20222;-65
2023/03/23 04:19:33;;;;;;;6.15;3.70;;;;;;;;;;5029454;28;20194;-66
2023/03/23 04:21:59;;;;;;;10.35;4.22;;;;;;;;;;5026711;28;20201;-65
2023/03/23 04:24:24;;;;;;;4.93;3.30;;;;;;;;;;5025468;28;20224;-66
2023/03/23 04:26:54;;;;;;;5.18;3.50;;;;;;;;;;5023991;28;20218;-65
2023/03/23 04:29:19;;;;;;;5.70;3.22;;;;;;;;;;5025460;28;20222;-66
2023/03/23 04:31:45;;;;;;;4.70;3.53;;;;;;;;;;5026220;28;20251;-65
2023/03/23 04:34:13;;;;;;;5.95;3.72;;;;;;;;;;5016076;28;20193;-65
2023/03/23 04:36:40;;;;;;;6.07;4.00;;;;;;;;;;5029294;28;20634;-66
2023/03/23 04:39:09;;;;;;;5.97;3.80;;;;;;;;;;5019605;28;20638;-65
2023/03/23 04:41:35;;;;;;;7.20;3.90;;;;;;;;;;5022038;28;20183;-66
2023/03/23 04:44:02;;;;;;;7.95;3.67;;;;;;;;;;5024317;28;20194;-66
2023/03/23 04:46:31;;;;;;;8.02;3.83;;;;;;;;;;5026040;28;20202;-66
2023/03/23 04:49:00;;;;;;;6.57;4.05;;;;;;;;;;5029675;28;20218;-66
2023/03/23 04:51:27;;;;;;;6.45;3.92;;;;;;;;;;5027901;28;20182;-66
2023/03/23 04:53:53;;;;;;;5.70;3.90;;;;;;;;;;5027805;28;20227;-66
2023/03/23 04:56:19;;;;;;;6.13;3.88;;;;;;;;;;5026015;28;20178;-67
2023/03/23 04:58:45;;;;;;;5.85;4.20;;;;;;;;;;5027705;28;20680;-67
2023/03/23 05:01:13;;;;;;;5.82;3.80;;;;;;;;;;5022572;28;20763;-67
2023/03/23 05:03:39;;;;;;;6.57;3.88;;;;;;;;;;5027143;28;20186;-66
2023/03/23 05:06:06;;;;;;;5.45;3.55;;;;;;;;;;5025649;28;20220;-66
2023/03/23 05:08:31;;;;;;;7.43;3.88;;;;;;;;;;5014638;28;20278;-65
2023/03/23 05:10:59;;;;;;;6.78;3.70;;;;;;;;;;5026143;28;20289;-66
2023/03/23 05:13:26;;;;;;;8.07;3.45;;;;;;;;;;5025941;28;20218;-66
2023/03/23 05:15:52;;;;;;;6.43;3.50;;;;;;;;;;5019522;28;20227;-66
2023/03/23 05:18:17;;;;;;;7.25;3.65;;;;;;;;;;5024667;28;20728;-66
2023/03/23 05:20:43;;;;;;;5.55;3.08;;;;;;;;;;5013402;28;20282;-66
2023/03/23 05:23:09;;;;;;;5.35;3.42;;;;;;;;;;5020146;28;20194;-66
2023/03/23 05:25:39;;;;;;;4.47;3.05;;;;;;;;;;5024819;28;20198;-66
2023/03/23 05:28:05;;;;;;;5.10;3.47;;;;;;;;;;5020362;28;20231;-65
2023/03/23 05:30:31;;;;;;;6.22;3.72;;;;;;;;;;5032076;28;20594;-66
2023/03/23 05:32:56;;;;;;;5.95;3.35;;;;;;;;;;5024448;28;20249;-68
2023/03/23 05:35:22;;;;;;;8.15;3.58;;;;;;;;;;5023680;28;20197;-66
2023/03/23 05:37:48;;;;;;;5.38;3.05;;;;;;;;;;5022362;28;20196;-65
2023/03/23 05:40:15;;;;;;;5.20;3.50;;;;;;;;;;5012390;28;20186;-67
2023/03/23 05:42:41;;;;;;;4.85;3.20;;;;;;;;;;5019683;28;20190;-66
2023/03/23 05:45:10;;;;;;;5.38;3.65;;;;;;;;;;5024805;28;20217;-66
2023/03/23 05:47:37;;;;;;;4.97;3.50;;;;;;;;;;5016737;28;20222;-65
2023/03/23 05:50:02;;;;;;;5.00;3.60;;;;;;;;;;5023347;28;20867;-65
2023/03/23 05:52:32;;;;;;;6.05;3.05;;;;;;;;;;5031470;28;20186;-66
2023/03/23 05:54:57;;;;;;;7.38;3.88;;;;;;;;;;5031475;28;20194;-65
2023/03/23 05:57:23;;;;;;;7.68;3.58;;;;;;;;;;5032397;28;20665;-65
2023/03/23 05:59:49;;;;;;;8.10;3.50;;;;;;;;;;5031566;28;20190;-65
2023/03/23 06:02:14;;;;;;;6.75;4.28;;;;;;;;;;5028876;28;20244;-65
2023/03/23 06:04:40;;;;;;;9.38;3.67;;;;;;;;;;5028759;28;20261;-65
2023/03/23 06:07:07;;;;;;;5.30;3.20;;;;;;;;;;5027812;28;20207;-66
2023/03/23 06:09:33;;;;;;;5.53;2.95;;;;;;;;;;5025962;28;20190;-66
2023/03/23 06:11:58;;;;;;;6.93;3.35;;;;;;;;;;5030294;28;20213;-66
2023/03/23 06:14:24;;;;;;;7.32;3.42;;;;;;;;;;5032107;28;20281;-66
2023/03/23 06:16:50;;;;;;;5.53;3.13;;;;;;;;;;5023446;28;20221;-66
2023/03/23 06:19:15;;;;;;;7.70;2.92;;;;;;;;;;5031441;28;20222;-66
2023/03/23 06:21:42;;;;;;;9.35;3.35;;;;;;;;;;5017960;28;20281;-66
2023/03/23 06:24:08;;;;;;;8.65;3.22;;;;;;;;;;5022511;28;20243;-66
2023/03/23 06:26:36;;;;;;;6.75;2.83;;;;;;;;;;5018720;28;20214;-66
2023/03/23 06:29:10;;;;;;;6.97;2.80;;;;;;;;;;5011849;28;20230;-66
2023/03/23 06:31:37;;;;;;;10.15;3.10;;;;;;;;;;5026431;28;20311;-66
2023/03/23 06:34:02;;;;;;;9.55;2.83;;;;;;;;;;5024986;28;20321;-67
2023/03/23 06:36:28;;;;;;;9.10;3.53;;;;;;;;;;5019296;28;20270;-67
2023/03/23 06:38:53;;;;;;;7.82;2.80;;;;;;;;;;5025826;28;20268;-67
2023/03/23 06:41:18;;;;;;;6.90;2.50;;;;;;;;;;5028707;28;20194;-67
2023/03/23 06:43:46;;;;;;;6.38;2.38;;;;;;;;;;5030097;28;20253;-66
2023/03/23 06:46:11;;;;;;;6.78;2.25;;;;;;;;;;5025090;28;20263;-66
2023/03/23 06:48:36;;;;;;;8.13;2.63;;;;;;;;;;5027331;28;20280;-67
2023/03/23 06:51:02;;;;;;;8.63;2.45;;;;;;;;;;5023475;28;20253;-65
2023/03/23 06:53:27;;;;;;;8.43;2.22;;;;;;;;;;5017821;28;20194;-66
2023/03/23 06:55:53;;;;;;;8.85;2.97;;;;;;;;;;5029039;28;20289;-65
2023/03/23 06:58:18;;;;;;;7.63;2.05;;;;;;;;;;5032131;28;20196;-67
2023/03/23 07:00:44;;;;;;;8.95;2.40;;;;;;;;;;5033419;28;20217;-66
2023/03/23 07:03:09;;;;;;;8.48;2.25;;;;;;;;;;5015439;28;20198;-67
2023/03/23 07:05:35;;;;;;;10.25;2.72;;;;;;;;;;5018748;28;20206;-67
2023/03/23 07:08:05;;;;;;;9.68;2.50;;;;;;;;;;5029802;28;20229;-67
2023/03/23 07:10:31;;;;;;;9.93;2.35;;;;;;;;;;5025348;28;20676;-68
2023/03/23 07:12:57;;;;;;;9.88;2.60;;;;;;;;;;5030273;28;20190;-70
2023/03/23 07:15:22;;;;;;;6.43;1.73;;;;;;;;;;5012507;28;20190;-69
2023/03/23 07:17:48;;;;;;;5.32;1.55;;;;;;;;;;5012157;28;20608;-71
2023/03/23 07:20:14;;;;;;;6.07;1.83;;;;;;;;;;5009496;28;20194;-70
2023/03/23 07:22:40;;;;;;;4.45;1.85;;;;;;;;;;5028060;28;20266;-70
2023/03/23 07:25:07;;;;;;;6.72;1.73;;;;;;;;;;5020139;28;20187;-70
2023/03/23 07:27:33;;;;;;;5.28;1.50;;;;;;;;;;5014176;28;20237;-70
2023/03/23 07:29:59;;;;;;;6.47;1.60;;;;;;;;;;5024057;28;20259;-69
2023/03/23 07:32:25;;;;;;;3.00;1.38;;;;;;;;;;5027955;28;20201;-70
2023/03/23 07:34:51;;;;;;;7.43;2.08;;;;;;;;;;5015480;28;20664;-73
2023/03/23 07:37:17;;;;;;;10.75;3.25;;;;;;;;;;5032488;28;20182;-74
2023/03/23 07:39:43;;;;;;;8.20;2.30;;;;;;;;;;5027702;28;20660;-75
2023/03/23 07:42:09;;;;;;;11.35;2.40;;;;;;;;;;5017355;28;20273;-74
2023/03/23 07:44:35;;;;;;;7.75;2.50;;;;;;;;;;5008482;28;20189;-74
2023/03/23 07:47:00;;;;;;;8.93;2.45;;;;;;;;;;5012389;28;20202;-74
2023/03/23 07:49:26;;;;;;;9.73;2.45;;;;;;;;;;5031277;28;20558;-74
2023/03/23 07:51:52;;;;;;;8.35;2.78;;;;;;;;;;5027730;28;20203;-74
2023/03/23 07:54:18;;;;;;;7.53;2.53;;;;;;;;;;5016721;28;20584;-74
2023/03/23 07:56:45;;;;;;;7.93;2.58;;;;;;;;;;5027465;28;20190;-74
2023/03/23 07:59:11;;;;;;;9.27;2.15;;;;;;;;;;5014929;28;20183;-73
2023/03/23 08:01:36;;;;;;;7.65;3.03;;;;;;;;;;5024512;28;20206;-73
2023/03/23 08:04:02;;;;;;;8.45;3.05;;;;;;;;;;5020701;28;20191;-73
2023/03/23 08:06:28;;;;;;;7.25;3.03;;;;;;;;;;5024512;28;20260;-73
2023/03/23 08:08:53;;;;;;;11.13;2.90;;;;;;;;;;5025288;28;20278;-74
2023/03/23 08:11:20;;;;;;;11.25;3.20;;;;;;;;;;5024559;28;20201;-74
2023/03/23 08:13:46;;;;;;;10.48;3.33;;;;;;;;;;5018838;28;20482;-74
2023/03/23 08:16:13;;;;;;;7.50;3.30;;;;;;;;;;5028336;28;20194;-75
2023/03/23 08:18:39;;;;;;;12.63;3.70;;;;;;;;;;5017364;28;20212;-75
2023/03/23 08:21:05;;;;;;;7.75;3.30;;;;;;;;;;5018633;28;20202;-75
2023/03/23 08:23:32;;;;;;;12.77;3.67;;;;;;;;;;5019576;28;20193;-72
2023/03/23 08:25:58;;;;;;;10.25;3.72;;;;;;;;;;5021159;28;20183;-73
2023/03/23 08:28:24;;;;;;;10.45;3.67;;;;;;;;;;5028626;28;20563;-72
2023/03/23 08:30:49;;;;;;;8.82;3.70;;;;;;;;;;5028937;28;20186;-73
2023/03/23 08:33:15;;;;;;;11.88;3.88;;;;;;;;;;4324073;28;10000723;-73
2023/03/23 08:35:42;;;;;;;15.18;3.97;;;;;;;;;;5017061;28;20666;-73
2023/03/23 08:38:08;;;;;;;14.45;3.78;;;;;;;;;;5011669;28;20190;-72
2023/03/23 08:40:33;;;;;;;9.63;3.90;;;;;;;;;;5017736;28;20194;-72
2023/03/23 08:42:59;;;;;;;14.45;3.92;;;;;;;;;;5021471;28;20186;-73
2023/03/23 08:45:26;;;;;;;10.63;4.32;;;;;;;;;;5026175;28;20240;-72
2023/03/23 08:47:54;;;;;;;11.60;4.38;;;;;;;;;;5025217;28;20255;-72
2023/03/23 08:50:23;;;;;;;12.60;4.13;;;;;;;;;;5014953;28;20487;-71
2023/03/23 08:52:49;;;;;;;9.80;3.42;;;;;;;;;;5019300;28;20284;-71
2023/03/23 08:55:16;;;;;;;8.88;3.70;;;;;;;;;;5022051;28;20278;-70
2023/03/23 08:57:43;;;;;;;12.38;3.45;;;;;;;;;;5013386;28;20834;-70
2023/03/23 09:00:18;;;;;;;9.95;3.20;;;;;;;;;;5026051;28;20665;-69
2023/03/23 09:02:45;;;;;;;12.45;3.00;;;;;;;;;;5024779;28;20280;-70
2023/03/23 09:05:11;;;;;;;13.18;3.30;;;;;;;;;;5019360;28;20195;-70
2023/03/23 09:07:42;;;;;;;10.85;2.60;;;;;;;;;;5014545;28;20263;-73
2023/03/23 09:10:08;;;;;;;13.05;2.97;;;;;;;;;;5022744;28;20209;-72
2023/03/23 09:12:35;;;;;;;10.40;2.80;;;;;;;;;;5016771;28;20198;-71
2023/03/23 09:15:05;;;;;;;8.93;2.58;;;;;;;;;;5012463;28;20354;-71
2023/03/23 09:17:31;;;;;;;10.85;2.65;;;;;;;;;;5021584;28;20224;-72
2023/03/23 09:19:56;;;;;;;8.98;2.88;;;;;;;;;;5012899;28;20304;-72
2023/03/23 09:22:23;;;;;;;9.65;2.80;;;;;;;;;;5019397;28;20273;-71
2023/03/23 09:24:49;;;;;;;7.13;2.80;;;;;;;;;;5022734;28;20198;-72
2023/03/23 09:27:16;;;;;;;7.32;2.28;;;;;;;;;;5014356;28;20221;-71
2023/03/23 09:29:41;;;;;;;4.78;2.20;;;;;;;;;;5014328;28;20230;-71
2023/03/23 09:32:07;;;;;;;7.97;2.30;;;;;;;;;;5021610;28;20307;-70
2023/03/23 09:34:35;;;;;;;7.78;2.00;;;;;;;;;;5022085;28;20250;-70
2023/03/23 09:37:04;;;;;;;5.90;1.92;;;;;;;;;;5015438;28;20553;-69
2023/03/23 09:39:30;;;;;;;8.40;2.00;;;;;;;;;;5020889;28;20262;-69
2023/03/23 09:42:29;;;;;;;5.95;1.58;;;;;;;;;;5011332;28;20269;-69
2023/03/23 09:45:06;;;;;;;4.82;1.38;;;;;;;;;;5020331;28;20616;-69
2023/03/23 09:47:53;;;;;;;6.40;1.80;;;;;;;;;;5017404;28;20209;-69
2023/03/23 09:50:23;;;;;;;8.32;1.63;;;;;;;;;;5009144;28;20267;-69
2023/03/23 09:53:08;;;;;;;5.05;1.75;;;;;;;;;;5009095;28;20249;-70
2023/03/23 09:55:35;;;;;;;7.07;2.08;;;;;;;;;;5012467;28;20213;-69
2023/03/23 09:58:26;;;;;;;6.30;1.90;;;;;;;;;;5019823;28;20194;-69
2023/03/23 10:01:02;;;;;;;8.18;2.00;;;;;;;;;;5024416;28;20214;-69
2023/03/23 10:03:37;;;;;;;8.07;2.10;;;;;;;;;;5020143;28;20212;-69
2023/03/23 10:06:02;;;;;;;7.78;1.75;;;;;;;;;;5025427;28;20194;-68
2023/03/23 10:08:32;;;;;;;8.23;1.98;;;;;;;;;;5011925;28;20552;-69
2023/03/23 10:11:10;;;;;;;6.60;1.80;;;;;;;;;;5017598;28;20202;-68
2023/03/23 10:14:06;;;;;;;5.82;1.77;;;;;;;;;;5018634;28;20302;-70
2023/03/23 10:16:40;;;;;;;6.93;1.98;;;;;;;;;;5016997;28;20186;-67
2023/03/23 10:19:37;;;;;;;6.05;1.90;;;;;;;;;;5021958;28;20186;-68
2023/03/23 10:22:08;;;;;;;8.35;2.20;;;;;;;;;;5022771;28;20241;-68
2023/03/23 10:24:46;;;;;;;8.90;1.98;;;;;;;;;;5029807;28;20179;-67
2023/03/23 10:27:31;;;;;;;7.20;2.10;;;;;;;;;;5016010;28;20202;-68
2023/03/23 10:30:11;;;;;;;6.45;2.03;;;;;;;;;;5017650;28;21283;-67
2023/03/23 10:33:01;;;;;;;3.80;1.30;;;;;;;;;;5020705;28;20178;-66
2023/03/23 10:35:33;;;;;;;7.47;2.00;;;;;;;;;;5023284;28;20182;-67
2023/03/23 10:38:06;;;;;;;4.43;1.48;;;;;;;;;;5022728;28;20190;-67
2023/03/23 10:40:34;;;;;;;6.55;1.40;;;;;;;;;;5011235;28;20221;-66
2023/03/23 10:43:01;;;;;;;9.50;1.83;;;;;;;;;;5019389;28;20208;-67
2023/03/23 10:45:32;;;;;;;7.22;1.90;;;;;;;;;;5023565;28;20304;-66
2023/03/23 10:48:12;;;;;;;7.72;1.63;;;;;;;;;;5026096;28;20202;-67
2023/03/23 10:50:39;;;;;;;5.28;1.40;;;;;;;;;;5028306;28;20285;-66
2023/03/23 10:53:16;;;;;;;6.20;1.65;;;;;;;;;;5023353;28;20678;-66
2023/03/23 10:55:44;;;;;;;5.63;1.70;;;;;;;;;;5027068;28;20508;-66
2023/03/23 10:58:12;;;;;;;5.95;1.70;;;;;;;;;;5027329;28;20178;-66
2023/03/23 11:00:47;;;;;;;6.57;1.95;;;;;;;;;;5031317;28;20203;-66
2023/03/23 11:03:15;;;;;;;6.28;1.80;;;;;;;;;;5025644;28;20729;-67
2023/03/23 11:05:53;;;;;;;6.25;1.98;;;;;;;;;;5021056;28;20249;-67
2023/03/23 11:08:21;;;;;;;8.18;1.83;;;;;;;;;;5015283;28;20214;-67
2023/03/23 11:10:59;;;;;;;6.07;1.70;;;;;;;;;;5013864;28;20199;-67
2023/03/23 11:13:31;;;;;;;8.20;1.70;;;;;;;;;;5023357;28;20276;-67
2023/03/23 11:15:57;;;;;;;7.55;1.50;;;;;;;;;;5011568;28;20191;-67
2023/03/23 11:18:36;;;;;;;6.65;1.20;;;;;;;;;;5028843;28;20590;-67
2023/03/23 11:21:04;;;;;;;9.00;1.50;;;;;;;;;;5018457;28;20587;-68
2023/03/23 11:23:33;;;;;;;6.82;1.40;;;;;;;;;;5019582;28;20190;-66
2023/03/23 11:26:01;;;;;;;3.80;1.27;;;;;;;;;;5022036;28;20252;-66
2023/03/23 11:28:34;;;;;;;11.55;1.90;;;;;;;;;;5026811;28;20260;-66
2023/03/23 11:31:02;;;;;;;10.68;2.53;;;;;;;;;;5030302;28;20193;-67
2023/03/23 11:33:51;;;;;;;8.32;1.83;;;;;;;;;;5028044;28;20268;-67
2023/03/23 11:36:17;;;;;;;9.30;2.10;;;;;;;;;;5031400;28;20594;-67
2023/03/23 11:38:44;;;;;;;5.55;1.65;;;;;;;;;;5018767;28;20277;-68
2023/03/23 11:41:18;;;;;;;6.70;1.95;;;;;;;;;;5021688;28;20545;-67
2023/03/23 11:43:46;;;;;;;8.55;1.65;;;;;;;;;;5025452;28;20681;-69
2023/03/23 11:46:35;;;;;;;10.50;1.95;;;;;;;;;;5025827;28;20203;-68
2023/03/23 11:49:07;;;;;;;7.78;1.45;;;;;;;;;;5019693;28;20186;-67
2023/03/23 11:51:42;;;;;;;9.80;1.77;;;;;;;;;;5024632;28;20221;-67
2023/03/23 11:54:31;;;;;;;7.25;1.98;;;;;;;;;;5020583;28;20186;-67
2023/03/23 11:56:57;;;;;;;9.55;1.90;;;;;;;;;;5026052;28;20197;-67
2023/03/23 11:59:33;;;;;;;11.73;2.20;;;;;;;;;;5015674;28;20190;-66
2023/03/23 12:02:04;;;;;;;10.93;2.17;;;;;;;;;;5027376;28;20950;-66
2023/03/23 12:04:37;;;;;;;8.82;1.80;;;;;;;;;;5031121;28;20194;-67
2023/03/23 12:07:36;;;;;;;6.65;1.90;;;;;;;;;;5014826;28;20264;-67
2023/03/23 12:10:19;;;;;;;10.70;2.10;;;;;;;;;;5024527;28;20221;-67
2023/03/23 12:13:13;;;;;;;5.93;1.70;;;;;;;;;;5027634;28;20186;-67
2023/03/23 12:16:00;;;;;;;9.68;1.88;;;;;;;;;;5021589;28;20193;-67
2023/03/23 12:18:56;;;;;;;11.63;2.00;;;;;;;;;;5023170;28;20186;-67
2023/03/23 12:21:37;;;;;;;8.05;1.95;;;;;;;;;;5016411;28;20260;-66
2023/03/23 12:24:12;;;;;;;9.88;1.58;;;;;;;;;;5027801;28;20209;-65
2023/03/23 12:26:47;;;;;;;7.38;1.55;;;;;;;;;;5029781;28;20709;-66
2023/03/23 12:29:35;;;;;;;7.47;1.70;;;;;;;;;;5009676;28;20776;-66
2023/03/23 12:32:00;;;;;;;11.10;1.77;;;;;;;;;;5019206;28;20217;-66
2023/03/23 12:34:37;;;;;;;7.10;1.75;;;;;;;;;;5024173;28;20643;-67
2023/03/23 12:37:38;;;;;;;9.23;1.73;;;;;;;;;;5011206;28;20620;-67
2023/03/23 12:40:23;;;;;;;5.55;1.58;;;;;;;;;;5017676;28;20179;-67
2023/03/23 12:43:19;;;;;;;9.73;1.65;;;;;;;;;;5018922;28;20236;-68
2023/03/23 12:46:07;;;;;;;5.15;1.33;;;;;;;;;;5030342;28;20186;-67
2023/03/23 12:48:39;;;;;;;8.27;1.80;;;;;;;;;;5016046;28;20195;-66
2023/03/23 12:51:30;;;;;;;9.77;1.80;;;;;;;;;;5012349;28;20643;-67
2023/03/23 12:54:02;;;;;;;12.90;2.00;;;;;;;;;;5019387;28;20237;-67
2023/03/23 12:56:54;;;;;;;6.88;1.65;;;;;;;;;;5026506;28;20182;-67
2023/03/23 12:59:35;;;;;;;8.20;1.60;;;;;;;;;;5027775;28;20599;-66
2023/03/23 13:02:25;;;;;;;8.05;2.30;;;;;;;;;;5009121;28;20589;-67
2023/03/23 13:04:58;;;;;;;9.60;2.05;;;;;;;;;;5026729;28;20194;-66
2023/03/23 13:07:33;;;;;;;6.93;1.45;;;;;;;;;;5022771;28;20638;-67
2023/03/23 13:10:09;;;;;;;9.10;2.10;;;;;;;;;;5029599;28;20191;-66
2023/03/23 13:12:39;;;;;;;8.20;1.77;;;;;;;;;;5013535;28;20189;-66
2023/03/23 13:15:29;;;;;;;8.23;2.10;;;;;;;;;;5027569;28;20252;-66
2023/03/23 13:18:27;;;;;;;9.45;1.90;;;;;;;;;;5023446;28;20229;-67
2023/03/23 13:21:03;;;;;;;7.95;1.90;;;;;;;;;;5008783;28;20213;-67
2023/03/23 13:23:36;;;;;;;8.27;2.00;;;;;;;;;;5019502;28;20196;-67
2023/03/23 13:26:22;;;;;;;6.40;1.95;;;;;;;;;;5008994;28;20363;-67
2023/03/23 13:28:57;;;;;;;7.30;1.98;;;;;;;;;;5022735;28;20273;-68
2023/03/23 13:31:35;;;;;;;10.98;2.15;;;;;;;;;;5014226;28;20781;-65
2023/03/23 13:34:00;;;;;;;8.18;2.05;;;;;;;;;;5026586;28;20224;-66
2023/03/23 13:36:35;;;;;;;6.88;1.67;;;;;;;;;;5021050;28;20214;-66
2023/03/23 13:39:04;;;;;;;9.13;1.63;;;;;;;;;;5007940;28;20217;-67
2023/03/23 13:41:30;;;;;;;6.28;1.40;;;;;;;;;;5015482;28;20273;-67
2023/03/23 13:44:16;;;;;;;7.95;1.73;;;;;;;;;;5018123;28;20305;-67
2023/03/23 13:46:42;;;;;;;6.25;2.03;;;;;;;;;;5016652;28;20388;-67
2023/03/23 13:49:19;;;;;;;9.15;1.85;;;;;;;;;;5029263;28;20190;-69
2023/03/23 13:51:44;;;;;;;5.63;1.63;;;;;;;;;;5016410;28;20607;-68
2023/03/23 13:54:12;;;;;;;7.63;1.60;;;;;;;;;;5016614;28;20194;-67
2023/03/23 13:56:56;;;;;;;9.73;1.88;;;;;;;;;;5020261;28;20503;-68
2023/03/23 13:59:27;;;;;;;5.00;1.33;;;;;;;;;;5029674;28;20251;-68
2023/03/23 14:01:54;;;;;;;9.48;1.30;;;;;;;;;;5019108;28;20243;-68
2023/03/23 14:04:21;;;;;;;3.55;0.85;;;;;;;;;;5029251;28;20602;-68
2023/03/23 14:06:49;;;;;;;8.07;1.10;;;;;;;;;;5027006;28;20213;-69
2023/03/23 14:09:48;;;;;;;3.17;1.00;;;;;;;;;;5024569;28;20201;-68
2023/03/23 14:12:19;;;;;;;2.13;0.77;;;;;;;;;;5003126;28;20211;-68
2023/03/23 14:14:49;;;;;;;3.28;0.90;;;;;;;;;;5020585;28;20187;-68
2023/03/23 14:17:25;;;;;;;3.50;0.55;;;;;;;;;;5019693;28;20523;-68
2023/03/23 14:19:56;;;;;;;3.83;0.82;;;;;;;;;;5022002;28;20272;-67
2023/03/23 14:22:27;;;;;;;4.15;0.73;;;;;;;;;;5025757;28;20196;-67
2023/03/23 14:25:09;;;;;;;2.67;0.88;;;;;;;;;;5031847;28;20243;-67
2023/03/23 14:27:35;;;;;;;2.85;0.73;;;;;;;;;;5025207;28;20238;-68
2023/03/23 14:30:06;;;;;;;2.63;0.85;;;;;;;;;;5022324;28;20233;-68
2023/03/23 14:32:32;;;;;;;3.70;1.00;;;;;;;;;;5028744;28;20284;-66
2023/03/23 14:35:01;;;;;;;6.22;0.88;;;;;;;;;;5023861;28;20281;-67
2023/03/23 14:37:26;;;;;;;3.72;0.93;;;;;;;;;;5020561;28;20186;-67
2023/03/23 14:39:54;;;;;;;5.55;0.93;;;;;;;;;;5024242;28;20202;-68
2023/03/23 14:42:30;;;;;;;3.42;0.93;;;;;;;;;;5019690;28;20285;-67
2023/03/23 14:44:57;;;;;;;5.63;1.20;;;;;;;;;;5023611;28;20673;-67
2023/03/23 14:47:27;;;;;;;6.53;1.40;;;;;;;;;;5021848;28;20252;-68
2023/03/23 14:49:56;;;;;;;4.00;1.13;;;;;;;;;;5021125;28;20364;-66
2023/03/23 14:52:26;;;;;;;8.10;1.90;;;;;;;;;;5027583;28;20251;-67
2023/03/23 14:54:51;;;;;;;4.30;1.35;;;;;;;;;;5026392;28;20182;-67
2023/03/23 14:57:28;;;;;;;4.05;1.25;;;;;;;;;;5024506;28;20214;-66
2023/03/23 14:59:54;;;;;;;5.00;1.27;;;;;;;;;;5028231;28;20182;-66
2023/03/23 15:02:31;;;;;;;3.08;1.00;;;;;;;;;;5031432;28;20201;-67